Aeroporto :
LOGIN :

Iscrizione | Disclaimer

   EN    FR    IT 

 










Sommario :    VFR   VFR Marginale   IFR   IFR Intensivo   IFR Molto Intensivo
Visibilità : 
Base nubi : 
>= 8 km
>= 3000ft
5 / 8 km
1000 / 3000 ft
1500m / 5 km
500 / 1000 ft
800 / 1500m
200 / 500 ft
< 800m
< 200 ft
Simboli :   Temporali  Nebbia  Neve Forte  Precipitazioni Forti  Vento > 20 kt
SIGMETs :   Varie  Temporali  Ghiacco  Turbolenza  Onda orograficha  Ceneri Vulcaniche







- Altitudine del aeroporto : 602 ft
- Codice IATA : NVS
- Carte del aeroporto


LFQG - Nevers

ULTIMO METAR :
  • 211730Z AUTO 00000KT CAVOK 09/04 Q1029

METARs OBSOLETI :
  • 211700Z AUTO 00000KT CAVOK 14/05 Q1029
  • 211630Z AUTO 01002KT CAVOK 16/05 Q1029
  • 211600Z AUTO 00000KT CAVOK 17/04 Q1029
  • 211530Z AUTO VRB01KT CAVOK 17/05 Q1029
  • 211500Z AUTO VRB02KT CAVOK 18/05 Q1029

TAF N/A
Nessun NOTAM noto per questo aeroporto.



MetMap, La meteo Aeronautica in un colpo d'occhio ! - Copyright ORBIFLY Dicembre 2007 - Disclaimer

ORBIFLY MET'MAP TEAM :

Programmazione e sviluppo : Alexandra Zaïnal
Concezione e sviluppo : Baudouin d'Aumeries
Co-Programmazione e sviluppo : Marc-Olivier Méhu
Supporto tecnico e logistico : Manuel Goepfert
Aiuto per la traduzione : Arnaldo La Scala

Contatto : metmap@orbifly.com




FONTI E CREDITI :

   NOAA